createdAt,value
2022-09-26T00:01:31.500Z,15.77
2022-09-26T00:04:03.180Z,15.75
2022-09-26T00:06:30.106Z,15.72
2022-09-26T00:08:57.004Z,15.68
2022-09-26T00:11:27.248Z,15.66
2022-09-26T00:14:00.717Z,15.63
2022-09-26T00:16:27.785Z,15.63
2022-09-26T00:18:56.282Z,15.63
2022-09-26T00:21:24.139Z,15.64
2022-09-26T00:23:53.294Z,15.65
2022-09-26T00:26:21.556Z,15.69
2022-09-26T00:28:48.666Z,15.69
2022-09-26T00:31:20.472Z,15.71
2022-09-26T00:33:48.767Z,15.73
2022-09-26T00:36:15.534Z,15.75
2022-09-26T00:38:42.189Z,15.74
2022-09-26T00:41:08.960Z,15.72
2022-09-26T00:43:39.042Z,15.72
2022-09-26T00:46:24.414Z,15.71
2022-09-26T00:49:14.492Z,15.70
2022-09-26T00:51:46.247Z,15.73
2022-09-26T00:54:19.641Z,15.73
2022-09-26T00:56:50.359Z,15.74
2022-09-26T00:59:29.437Z,15.73
2022-09-26T01:01:58.566Z,15.72
2022-09-26T01:04:32.685Z,15.70
2022-09-26T01:07:03.062Z,15.71
2022-09-26T01:09:30.993Z,15.72
2022-09-26T01:12:01.317Z,15.73
2022-09-26T01:14:30.222Z,15.73
2022-09-26T01:16:56.797Z,15.75
2022-09-26T01:19:43.156Z,15.76
2022-09-26T01:22:28.095Z,15.78
2022-09-26T01:25:29.924Z,15.76
2022-09-26T01:28:18.242Z,15.74
2022-09-26T01:30:52.385Z,15.73
2022-09-26T01:33:39.219Z,15.70
2022-09-26T01:36:30.338Z,15.68
2022-09-26T01:39:30.484Z,15.70
2022-09-26T01:42:13.468Z,15.69
2022-09-26T01:45:01.118Z,15.69
2022-09-26T01:47:35.845Z,15.71
2022-09-26T01:50:10.285Z,15.71
2022-09-26T01:52:58.121Z,15.70
2022-09-26T01:55:32.083Z,15.68
2022-09-26T01:58:06.738Z,15.67
2022-09-26T02:00:36.303Z,15.66
2022-09-26T02:03:06.402Z,15.66
2022-09-26T02:05:38.712Z,15.67
2022-09-26T02:08:13.246Z,15.68
2022-09-26T02:10:47.066Z,15.67
2022-09-26T02:13:17.942Z,15.67
2022-09-26T02:15:49.706Z,15.68
2022-09-26T02:18:34.958Z,15.65
2022-09-26T02:21:32.801Z,15.63
2022-09-26T02:24:04.133Z,15.64
2022-09-26T02:26:30.755Z,15.65
2022-09-26T02:29:00.591Z,15.67
2022-09-26T02:31:31.838Z,15.66
2022-09-26T02:34:04.443Z,15.67
2022-09-26T02:36:33.621Z,15.66
2022-09-26T02:39:01.673Z,15.66
2022-09-26T02:42:09.025Z,15.65
2022-09-26T02:44:46.050Z,15.65
2022-09-26T02:47:25.310Z,15.63
2022-09-26T02:50:29.150Z,15.63
2022-09-26T02:52:56.515Z,15.63
2022-09-26T02:56:03.657Z,15.60
2022-09-26T02:58:48.824Z,15.60
2022-09-26T03:01:25.833Z,15.60
2022-09-26T03:04:15.233Z,15.60
2022-09-26T03:06:49.177Z,15.62
2022-09-26T03:09:19.552Z,15.63
2022-09-26T03:11:48.065Z,15.65
2022-09-26T03:14:21.003Z,15.66
2022-09-26T03:16:51.025Z,15.65
2022-09-26T03:19:27.247Z,15.63
2022-09-26T03:21:54.483Z,15.62
2022-09-26T03:24:24.290Z,15.63
2022-09-26T03:26:51.715Z,15.62
2022-09-26T03:29:20.079Z,15.64
2022-09-26T03:31:50.234Z,15.63
2022-09-26T03:34:22.064Z,15.63
2022-09-26T03:36:49.846Z,15.63
2022-09-26T03:39:17.307Z,15.64
2022-09-26T03:41:50.751Z,15.65
2022-09-26T03:44:21.666Z,15.65
2022-09-26T03:47:03.726Z,15.66
2022-09-26T03:49:31.102Z,15.66
2022-09-26T03:51:57.680Z,15.70
2022-09-26T03:54:24.613Z,15.73
2022-09-26T03:56:51.569Z,15.74
2022-09-26T03:59:18.137Z,15.73
2022-09-26T04:01:47.025Z,15.73
2022-09-26T04:04:17.820Z,15.73
2022-09-26T04:06:44.813Z,15.75
2022-09-26T04:09:16.810Z,15.72
2022-09-26T04:11:46.737Z,15.71
2022-09-26T04:14:15.087Z,15.70
2022-09-26T04:16:44.041Z,15.70
2022-09-26T04:19:23.135Z,15.68
2022-09-26T04:21:52.054Z,15.67
2022-09-26T04:24:22.206Z,15.68
2022-09-26T04:26:48.987Z,15.69
2022-09-26T04:29:16.393Z,15.68
2022-09-26T04:31:53.795Z,15.68
2022-09-26T04:34:27.458Z,15.68
2022-09-26T04:36:54.712Z,15.68
2022-09-26T04:39:21.464Z,15.70
2022-09-26T04:41:48.249Z,15.69
2022-09-26T04:44:15.164Z,15.69
2022-09-26T04:46:41.939Z,15.66
2022-09-26T04:49:10.031Z,15.63
2022-09-26T04:51:37.470Z,15.61
2022-09-26T04:54:08.538Z,15.61
2022-09-26T04:56:40.523Z,15.62
2022-09-26T04:59:08.258Z,15.58
2022-09-26T05:01:48.005Z,15.56
2022-09-26T05:04:27.810Z,15.54
2022-09-26T05:06:57.712Z,15.54
2022-09-26T05:09:30.775Z,15.56
2022-09-26T05:12:13.441Z,15.57
2022-09-26T05:14:48.132Z,15.58
2022-09-26T05:17:15.429Z,15.59
2022-09-26T05:19:44.688Z,15.56
2022-09-26T05:22:30.297Z,15.56
2022-09-26T05:25:16.780Z,15.55
2022-09-26T05:27:43.394Z,15.55
2022-09-26T05:30:12.561Z,15.57
2022-09-26T05:32:39.953Z,15.58
2022-09-26T05:35:08.419Z,15.59
2022-09-26T05:37:40.123Z,15.59
2022-09-26T05:40:25.557Z,15.60
2022-09-26T05:42:53.867Z,15.60
2022-09-26T05:45:22.171Z,15.61
2022-09-26T05:47:49.243Z,15.62
2022-09-26T05:50:16.636Z,15.61
2022-09-26T05:52:44.251Z,15.59
2022-09-26T05:55:17.115Z,15.56
2022-09-26T05:58:02.244Z,15.53
2022-09-26T06:00:49.238Z,15.51
2022-09-26T06:03:16.528Z,15.50
2022-09-26T06:05:53.810Z,15.49
2022-09-26T06:08:28.148Z,15.47
2022-09-26T06:11:27.377Z,15.50
2022-09-26T06:13:55.844Z,15.50
2022-09-26T06:16:22.876Z,15.49
2022-09-26T06:18:51.333Z,15.50
2022-09-26T06:21:20.168Z,15.51
2022-09-26T06:23:53.515Z,15.51
2022-09-26T06:26:23.826Z,15.51
2022-09-26T06:29:00.315Z,15.50
2022-09-26T06:31:29.942Z,15.46
2022-09-26T06:34:31.989Z,15.43
2022-09-26T06:37:24.454Z,15.42
2022-09-26T06:39:53.633Z,15.40
2022-09-26T06:42:22.324Z,15.40
2022-09-26T06:44:57.966Z,15.43
2022-09-26T06:47:24.910Z,15.44
2022-09-26T06:50:26.768Z,15.47
2022-09-26T06:52:56.609Z,15.49
2022-09-26T06:55:30.638Z,15.52
2022-09-26T06:57:58.419Z,15.53
2022-09-26T07:00:29.699Z,15.53
2022-09-26T07:03:19.408Z,15.53
2022-09-26T07:05:56.985Z,15.51
2022-09-26T07:08:43.750Z,15.52
2022-09-26T07:14:02.326Z,15.59
2022-09-26T07:16:30.560Z,15.59
2022-09-26T07:19:17.242Z,15.61
2022-09-26T07:21:55.446Z,15.63
2022-09-26T07:24:31.728Z,15.63
2022-09-26T07:26:58.280Z,15.62
2022-09-26T07:29:25.743Z,15.64
2022-09-26T07:31:52.746Z,15.66
2022-09-26T07:34:40.779Z,15.71
2022-09-26T07:37:07.746Z,15.74
2022-09-26T07:39:34.325Z,15.78
2022-09-26T07:42:04.370Z,15.81
2022-09-26T07:47:37.254Z,15.86
2022-09-26T07:50:12.848Z,15.85
2022-09-26T07:53:08.683Z,15.85
2022-09-26T07:56:13.233Z,15.88
2022-09-26T07:59:05.929Z,15.90
2022-09-26T08:01:54.496Z,15.92
2022-09-26T08:04:35.924Z,15.96
2022-09-26T08:07:02.971Z,15.97
2022-09-26T08:09:31.071Z,16.00
2022-09-26T08:12:27.684Z,16.04
2022-09-26T08:15:10.544Z,16.04
2022-09-26T08:17:41.296Z,16.04
2022-09-26T08:20:08.419Z,16.00
2022-09-26T08:22:35.306Z,16.02
2022-09-26T08:25:04.131Z,16.01
2022-09-26T08:27:43.729Z,16.01
2022-09-26T08:30:11.777Z,16.02
2022-09-26T08:32:39.002Z,16.05
2022-09-26T08:35:14.744Z,16.07
2022-09-26T08:38:08.994Z,16.10
2022-09-26T08:40:50.209Z,16.10
2022-09-26T08:44:09.511Z,16.12
2022-09-26T08:47:02.748Z,16.16
2022-09-26T08:50:08.078Z,16.20
2022-09-26T08:52:45.367Z,16.25
2022-09-26T08:55:24.924Z,16.27
2022-09-26T08:57:58.552Z,16.29
2022-09-26T09:00:27.341Z,16.30
2022-09-26T09:03:10.322Z,16.31
2022-09-26T09:05:42.912Z,16.31
2022-09-26T09:08:22.411Z,16.33
2022-09-26T09:11:19.646Z,16.38
2022-09-26T09:13:57.015Z,16.41
2022-09-26T09:17:13.599Z,16.46
2022-09-26T09:20:25.915Z,16.53
2022-09-26T09:23:16.459Z,16.59
2022-09-26T09:29:10.372Z,16.70
2022-09-26T09:31:43.677Z,16.75
2022-09-26T09:34:50.241Z,16.77
2022-09-26T09:37:46.471Z,16.76
2022-09-26T09:40:44.275Z,16.73
2022-09-26T09:43:26.657Z,16.70
2022-09-26T09:45:59.064Z,16.67
2022-09-26T09:48:28.098Z,16.64
2022-09-26T09:51:13.774Z,16.63
2022-09-26T09:54:18.530Z,16.62
2022-09-26T09:57:12.461Z,16.62
2022-09-26T10:00:02.930Z,16.62
2022-09-26T10:03:04.824Z,16.63
2022-09-26T10:05:41.625Z,16.69
2022-09-26T10:08:18.425Z,16.73
2022-09-26T10:11:14.312Z,16.76
2022-09-26T10:14:12.295Z,16.82
2022-09-26T10:17:09.246Z,16.85
2022-09-26T10:19:44.133Z,16.88
2022-09-26T10:22:25.040Z,16.86
2022-09-26T10:25:21.322Z,16.83
2022-09-26T10:27:55.160Z,16.87
2022-09-26T10:30:30.153Z,16.88
2022-09-26T10:33:04.602Z,16.88
2022-09-26T10:35:52.763Z,16.87
2022-09-26T10:38:28.767Z,16.93
2022-09-26T10:41:03.763Z,16.93
2022-09-26T10:43:38.925Z,16.90
2022-09-26T10:46:16.267Z,16.89
2022-09-26T10:49:03.434Z,16.91
2022-09-26T10:51:50.239Z,16.90
2022-09-26T10:54:23.432Z,16.93
2022-09-26T10:56:59.533Z,16.95
2022-09-26T10:59:31.769Z,16.96
2022-09-26T11:01:59.402Z,16.94
2022-09-26T11:04:52.119Z,16.92
2022-09-26T11:07:44.909Z,16.92
2022-09-26T11:10:34.432Z,16.91
2022-09-26T11:13:19.793Z,16.88
2022-09-26T11:16:01.130Z,16.91
2022-09-26T11:18:34.626Z,16.90
2022-09-26T11:21:28.302Z,16.91
2022-09-26T11:24:20.795Z,16.92
2022-09-26T11:27:05.461Z,16.95
2022-09-26T11:30:09.123Z,16.93
2022-09-26T11:32:41.531Z,16.96
2022-09-26T11:35:53.093Z,16.97
2022-09-26T11:38:49.266Z,16.94
2022-09-26T11:41:36.818Z,16.95
2022-09-26T11:44:19.181Z,16.94
2022-09-26T11:47:36.986Z,16.90
2022-09-26T11:50:16.290Z,16.89
2022-09-26T11:56:50.666Z,16.82
2022-09-26T11:59:41.810Z,16.80
2022-09-26T12:02:26.601Z,16.78
2022-09-26T12:05:14.089Z,16.77
2022-09-26T12:08:11.769Z,16.75
2022-09-26T12:11:17.496Z,16.74
2022-09-26T12:14:28.115Z,16.74
2022-09-26T12:17:14.958Z,16.75
2022-09-26T12:19:55.643Z,16.73
2022-09-26T12:22:38.767Z,16.72
2022-09-26T12:25:20.347Z,16.71
2022-09-26T12:27:49.941Z,16.70
2022-09-26T12:30:33.166Z,16.68
2022-09-26T12:33:40.542Z,16.66
2022-09-26T12:36:40.194Z,16.66
2022-09-26T12:39:09.689Z,16.65
2022-09-26T12:41:46.547Z,16.65
2022-09-26T12:44:31.195Z,16.65
2022-09-26T12:47:12.725Z,16.65
2022-09-26T12:49:51.894Z,16.65
2022-09-26T12:52:59.630Z,16.66
2022-09-26T12:55:35.042Z,16.69
2022-09-26T12:58:06.926Z,16.69
2022-09-26T13:00:43.782Z,16.73
2022-09-26T13:03:27.031Z,16.72
2022-09-26T13:06:49.115Z,16.70
2022-09-26T13:10:04.995Z,16.68
2022-09-26T13:12:59.119Z,16.64
2022-09-26T13:16:13.431Z,16.62
2022-09-26T13:18:50.442Z,16.63
2022-09-26T13:21:28.495Z,16.65
2022-09-26T13:24:05.077Z,16.65
2022-09-26T13:26:37.075Z,16.63
2022-09-26T13:29:17.735Z,16.61
2022-09-26T13:31:55.171Z,16.62
2022-09-26T13:34:35.790Z,16.63
2022-09-26T13:37:04.783Z,16.64
2022-09-26T13:39:41.949Z,16.67
2022-09-26T13:42:19.648Z,16.70
2022-09-26T13:45:15.837Z,16.71
2022-09-26T13:47:49.707Z,16.71
2022-09-26T13:50:41.143Z,16.73
2022-09-26T13:53:21.219Z,16.71
2022-09-26T13:56:27.655Z,16.71
2022-09-26T13:59:12.187Z,16.73
2022-09-26T14:01:59.618Z,16.73
2022-09-26T14:04:37.058Z,16.75
2022-09-26T14:07:26.587Z,16.76
2022-09-26T14:10:02.067Z,16.77
2022-09-26T14:12:55.790Z,16.75
2022-09-26T14:15:25.734Z,16.75
2022-09-26T14:17:52.235Z,16.75
2022-09-26T14:20:31.817Z,16.73
2022-09-26T14:23:00.467Z,16.73
2022-09-26T14:25:45.522Z,16.73
2022-09-26T14:28:33.879Z,16.74
2022-09-26T14:31:25.575Z,16.71
2022-09-26T14:34:11.569Z,16.71
2022-09-26T14:36:38.620Z,16.72
2022-09-26T14:39:05.997Z,16.71
2022-09-26T14:41:34.927Z,16.73
2022-09-26T14:44:17.601Z,16.75
2022-09-26T14:46:44.860Z,16.76
2022-09-26T14:49:40.677Z,16.77
2022-09-26T14:52:19.451Z,16.81
2022-09-26T14:54:47.001Z,16.84
2022-09-26T14:57:21.572Z,16.86
2022-09-26T14:59:48.537Z,16.84
2022-09-26T15:02:18.022Z,16.84
2022-09-26T15:05:01.300Z,16.84
2022-09-26T15:07:33.466Z,16.84
2022-09-26T15:10:05.923Z,16.83
2022-09-26T15:12:39.927Z,16.85
2022-09-26T15:15:48.494Z,16.86
2022-09-26T15:18:20.108Z,16.88
2022-09-26T15:21:04.028Z,16.88
2022-09-26T15:23:52.579Z,16.88
2022-09-26T15:26:26.823Z,16.90
2022-09-26T15:28:56.544Z,16.91
2022-09-26T15:31:38.007Z,16.88
2022-09-26T15:34:17.099Z,16.86
2022-09-26T15:36:48.579Z,16.86
2022-09-26T15:39:30.685Z,16.82
2022-09-26T15:42:16.795Z,16.80
2022-09-26T15:44:48.827Z,16.75
2022-09-26T15:47:31.601Z,16.70
2022-09-26T15:50:20.832Z,16.68
2022-09-26T15:53:20.107Z,16.66
2022-09-26T15:55:55.726Z,16.67
2022-09-26T15:58:34.117Z,16.69
2022-09-26T16:01:01.327Z,16.70
2022-09-26T16:03:53.947Z,16.68
2022-09-26T16:06:34.183Z,16.69
2022-09-26T16:09:06.796Z,16.68
2022-09-26T16:11:41.273Z,16.69
2022-09-26T16:14:25.530Z,16.69
2022-09-26T16:17:01.371Z,16.68
2022-09-26T16:19:30.939Z,16.62
2022-09-26T16:21:57.677Z,16.62
2022-09-26T16:24:34.095Z,16.64
2022-09-26T16:27:01.013Z,16.67
2022-09-26T16:29:35.753Z,16.69
2022-09-26T16:32:04.531Z,16.69
2022-09-26T16:34:32.690Z,16.67
2022-09-26T16:36:59.563Z,16.64
2022-09-26T16:39:30.737Z,16.63
2022-09-26T16:42:03.138Z,16.64
2022-09-26T16:44:36.239Z,16.65
2022-09-26T16:47:06.653Z,16.67
2022-09-26T16:49:42.856Z,16.64
2022-09-26T16:52:27.060Z,16.63
2022-09-26T16:54:58.816Z,16.63
2022-09-26T16:57:29.287Z,16.65
2022-09-26T17:00:20.028Z,16.63
2022-09-26T17:02:46.710Z,16.62
2022-09-26T17:05:19.807Z,16.63
2022-09-26T17:07:48.176Z,16.65
2022-09-26T17:10:15.533Z,16.67
2022-09-26T17:12:42.206Z,16.68
2022-09-26T17:15:17.406Z,16.70
2022-09-26T17:17:43.922Z,16.72
2022-09-26T17:20:13.195Z,16.73
2022-09-26T17:22:39.684Z,16.73
2022-09-26T17:25:10.753Z,16.72
2022-09-26T17:27:39.780Z,16.72
2022-09-26T17:30:18.383Z,16.70
2022-09-26T17:32:49.606Z,16.68
2022-09-26T17:35:24.930Z,16.65
2022-09-26T17:37:51.744Z,16.62
2022-09-26T17:40:24.252Z,16.64
2022-09-26T17:42:59.235Z,16.64
2022-09-26T17:46:04.670Z,16.63
2022-09-26T17:48:32.306Z,16.66
2022-09-26T17:51:02.176Z,16.67
2022-09-26T17:53:52.501Z,16.66
2022-09-26T17:56:20.104Z,16.67
2022-09-26T17:58:47.891Z,16.68
2022-09-26T18:01:22.489Z,16.67
2022-09-26T18:03:59.787Z,16.68
2022-09-26T18:06:31.394Z,16.70
2022-09-26T18:09:01.801Z,16.71
2022-09-26T18:11:29.264Z,16.72
2022-09-26T18:14:04.566Z,16.71
2022-09-26T18:16:31.316Z,16.70
2022-09-26T18:18:57.815Z,16.68
2022-09-26T18:21:26.258Z,16.67
2022-09-26T18:24:02.092Z,16.65
2022-09-26T18:26:31.348Z,16.62
2022-09-26T18:29:04.058Z,16.60
2022-09-26T18:31:32.282Z,16.59
2022-09-26T18:34:03.011Z,16.56
2022-09-26T18:36:33.634Z,16.56
2022-09-26T18:39:00.310Z,16.57
2022-09-26T18:41:28.754Z,16.55
2022-09-26T18:43:58.770Z,16.53
2022-09-26T18:46:25.977Z,16.52
2022-09-26T18:48:58.271Z,16.49
2022-09-26T18:51:26.243Z,16.47
2022-09-26T18:53:55.977Z,16.46
2022-09-26T18:56:41.202Z,16.44
2022-09-26T18:59:10.113Z,16.43
2022-09-26T19:01:41.242Z,16.42
2022-09-26T19:04:17.531Z,16.38
2022-09-26T19:06:47.377Z,16.35
2022-09-26T19:09:16.960Z,16.35
2022-09-26T19:11:43.813Z,16.34
2022-09-26T19:14:20.840Z,16.30
2022-09-26T19:16:49.472Z,16.27
2022-09-26T19:19:17.320Z,16.25
2022-09-26T19:21:58.389Z,16.23
2022-09-26T19:24:54.345Z,16.21
2022-09-26T19:27:24.382Z,16.20
2022-09-26T19:30:19.962Z,16.17
2022-09-26T19:32:49.426Z,16.18
2022-09-26T19:35:25.559Z,16.18
2022-09-26T19:37:52.897Z,16.20
2022-09-26T19:40:20.762Z,16.19
2022-09-26T19:42:47.474Z,16.18
2022-09-26T19:45:18.827Z,16.17
2022-09-26T19:47:53.250Z,16.16
2022-09-26T19:50:22.050Z,16.17
2022-09-26T19:52:51.196Z,16.15
2022-09-26T19:55:21.826Z,16.13
2022-09-26T19:57:48.330Z,16.09
2022-09-26T20:00:15.760Z,16.07
2022-09-26T20:02:42.544Z,16.07
2022-09-26T20:05:19.581Z,16.09
2022-09-26T20:07:46.926Z,16.10
2022-09-26T20:10:16.366Z,16.11
2022-09-26T20:12:43.926Z,16.10
2022-09-26T20:15:16.394Z,16.10
2022-09-26T20:17:45.480Z,16.08
2022-09-26T20:20:17.665Z,16.05
2022-09-26T20:22:44.920Z,16.03
2022-09-26T20:25:26.825Z,16.01
2022-09-26T20:27:54.426Z,16.01
2022-09-26T20:30:40.585Z,16.00
2022-09-26T20:33:08.990Z,16.02
2022-09-26T20:35:40.133Z,15.99
2022-09-26T20:38:17.736Z,15.94
2022-09-26T20:40:46.134Z,15.91
2022-09-26T20:43:20.826Z,15.89
2022-09-26T20:45:47.947Z,15.87
2022-09-26T20:48:21.048Z,15.84
2022-09-26T20:50:48.495Z,15.83
2022-09-26T20:53:20.677Z,15.83
2022-09-26T20:55:48.182Z,15.82
2022-09-26T20:58:14.981Z,15.79
2022-09-26T21:00:44.698Z,15.76
2022-09-26T21:03:13.143Z,15.74
2022-09-26T21:05:40.000Z,15.75
2022-09-26T21:08:27.770Z,15.74
2022-09-26T21:10:59.318Z,15.74
2022-09-26T21:13:25.798Z,15.71
2022-09-26T21:15:53.046Z,15.71
2022-09-26T21:18:26.879Z,15.70
2022-09-26T21:20:54.246Z,15.70
2022-09-26T21:23:46.787Z,15.71
2022-09-26T21:26:18.581Z,15.70
2022-09-26T21:28:45.115Z,15.68
2022-09-26T21:31:20.847Z,15.66
2022-09-26T21:33:49.147Z,15.67
2022-09-26T21:36:16.046Z,15.65
2022-09-26T21:38:44.367Z,15.62
2022-09-26T21:41:12.211Z,15.58
2022-09-26T21:43:48.698Z,15.55
2022-09-26T21:46:16.678Z,15.55
2022-09-26T21:48:43.805Z,15.54
2022-09-26T21:51:12.749Z,15.56
2022-09-26T21:53:52.563Z,15.56
2022-09-26T21:56:23.024Z,15.52
2022-09-26T21:58:50.513Z,15.49
2022-09-26T22:01:17.279Z,15.47
2022-09-26T22:03:45.426Z,15.46
2022-09-26T22:06:12.152Z,15.45
2022-09-26T22:08:39.873Z,15.45
2022-09-26T22:11:09.040Z,15.44
2022-09-26T22:13:41.348Z,15.42
2022-09-26T22:16:13.235Z,15.39
2022-09-26T22:18:40.786Z,15.37
2022-09-26T22:21:08.986Z,15.34
2022-09-26T22:23:41.310Z,15.29
2022-09-26T22:26:08.332Z,15.28
2022-09-26T22:28:35.250Z,15.26
2022-09-26T22:31:03.377Z,15.27
2022-09-26T22:33:31.144Z,15.29
2022-09-26T22:35:57.773Z,15.30
2022-09-26T22:38:24.378Z,15.30
2022-09-26T22:40:59.028Z,15.30
2022-09-26T22:43:26.228Z,15.31
2022-09-26T22:45:53.539Z,15.32
2022-09-26T22:48:20.110Z,15.32
2022-09-26T22:50:46.579Z,15.26
2022-09-26T22:53:13.061Z,15.23
2022-09-26T22:55:40.358Z,15.21
2022-09-26T22:58:07.157Z,15.21
2022-09-26T23:00:33.981Z,15.23
2022-09-26T23:03:00.496Z,15.21
2022-09-26T23:05:27.175Z,15.22
2022-09-26T23:07:54.731Z,15.20
2022-09-26T23:10:22.236Z,15.19
2022-09-26T23:12:49.809Z,15.19
2022-09-26T23:15:18.216Z,15.15
2022-09-26T23:17:44.835Z,15.13
2022-09-26T23:20:11.361Z,15.13
2022-09-26T23:22:39.699Z,15.10
2022-09-26T23:25:07.945Z,15.08
2022-09-26T23:27:35.365Z,15.05
2022-09-26T23:30:01.963Z,15.05
2022-09-26T23:32:28.550Z,15.03
2022-09-26T23:34:57.870Z,14.99
2022-09-26T23:37:24.428Z,14.97
2022-09-26T23:39:50.933Z,14.94
2022-09-26T23:42:17.552Z,14.92
2022-09-26T23:44:44.516Z,14.90
2022-09-26T23:47:11.211Z,14.86
2022-09-26T23:49:38.126Z,14.84
2022-09-26T23:52:04.633Z,14.80
2022-09-26T23:54:31.206Z,14.74
2022-09-26T23:56:57.747Z,14.71
2022-09-26T23:59:25.021Z,14.68
